This is the latest recevied weather packets stored in our database for station/object KE8ZLU. If no packets are shown the sender has not sent any weather packets the latest 10 day(s).
| Time | Temp. | Humidity | Pressure | Rain* | Wind** | Luminosity | Snow |
|---|---|---|---|---|---|---|---|
| 1778151955 | 3.33° C | 80% | 1014.2 hPa | 0 mm | - | 23 W/m² | - |
| 1778151651 | 2.78° C | 82% | 1014.3 hPa | 0 mm | - | 22 W/m² | - |
| 1778151348 | 2.78° C | 82% | 1014.3 hPa | 0 mm | - | 19 W/m² | - |
| 1778151044 | 2.78° C | 83% | 1014.3 hPa | 0 mm | - | 17 W/m² | - |
| 1778150742 | 2.78° C | 83% | 1014.3 hPa | 0 mm | - | 13 W/m² | - |
| 1778150438 | 2.78° C | 82% | 1014.3 hPa | 0 mm | - | 10 W/m² | - |
| 1778150134 | 2.22° C | 82% | 1014.3 hPa | 0 mm | - | 6 W/m² | - |
| 1778149831 | 2.22° C | 83% | 1014.2 hPa | 0 mm | - | 4 W/m² | - |
| 1778149528 | 2.78° C | 82% | 1014.2 hPa | 0 mm | - | 2 W/m² | - |
| 1778149224 | 2.78° C | 82% | 1014.1 hPa | 0 mm | - | 1 W/m² | - |
| 1778148920 | 2.22° C | 83% | 1014.2 hPa | 0 mm | - | 1 W/m² | - |
| 1778148616 | 1.67° C | 85% | 1014.2 hPa | 0 mm | - | 0 W/m² | - |
| 1778148314 | 2.22° C | 83% | 1014.1 hPa | 0 mm | - | 0 W/m² | - |
| 1778148011 | 2.78° C | 81% | 1014.1 hPa | 0 mm | - | 0 W/m² | - |
| 1778147709 | 2.78° C | 82% | 1014 hPa | 0 mm | - | 0 W/m² | - |
| 1778147405 | 2.78° C | 81% | 1014.1 hPa | 0 mm | - | 0 W/m² | - |
| 1778147102 | 1.67° C | 84% | 1014.2 hPa | 0 mm | - | 0 W/m² | - |
| 1778146799 | 1.11° C | 89% | 1014.1 hPa | 0 mm | - | 0 W/m² | - |
| 1778146496 | 1.11° C | 88% | 1014 hPa | 0 mm | - | 0 W/m² | - |
| 1778146194 | 1.67° C | 87% | 1014 hPa | 0 mm | - | 0 W/m² | - |
| 1778145891 | 2.22° C | 86% | 1014 hPa | 0 mm | - | 0 W/m² | - |
| 1778145588 | 2.78° C | 82% | 1014.1 hPa | 0 mm | - | 0 W/m² | - |
| 1778145285 | 3.33° C | 81% | 1014.2 hPa | 0 mm | - | 0 W/m² | - |
| 1778144980 | 2.78° C | 82% | 1014.2 hPa | 0 mm | - | 0 W/m² | - |
| 1778144676 | 2.22° C | 86% | 1014 hPa | 0 mm | - | 0 W/m² | - |
* Rain latest hour (hover to see other rain measurements)
** Current wind speed in m/s (hover to see current wind gust speed)